createdAt,value
2019-03-22T00:01:22.198Z,101881.89
2019-03-22T00:03:55.495Z,101886.28
2019-03-22T00:06:26.118Z,101876.38
2019-03-22T00:08:56.744Z,101883.46
2019-03-22T00:11:27.396Z,101887.49
2019-03-22T00:13:57.906Z,101877.52
2019-03-22T00:16:28.547Z,101875.30
2019-03-22T00:19:00.299Z,101878.19
2019-03-22T00:21:30.928Z,101876.96
2019-03-22T00:24:02.790Z,101872.92
2019-03-22T00:26:33.106Z,101873.29
2019-03-22T00:29:04.354Z,101874.58
2019-03-22T00:31:35.084Z,101870.74
2019-03-22T00:34:06.430Z,101874.94
2019-03-22T00:36:38.691Z,101878.47
2019-03-22T00:39:11.486Z,101873.73
2019-03-22T00:41:43.380Z,101873.87
2019-03-22T00:44:14.173Z,101880.50
2019-03-22T00:46:45.832Z,101869.59
2019-03-22T00:49:17.190Z,101869.01
2019-03-22T00:51:48.017Z,101863.84
2019-03-22T00:54:18.746Z,101867.22
2019-03-22T00:56:50.189Z,101871.20
2019-03-22T00:59:20.619Z,101870.31
2019-03-22T01:01:51.659Z,101871.13
2019-03-22T01:04:22.187Z,101878.21
2019-03-22T01:06:52.919Z,101828.36
2019-03-22T01:09:24.006Z,101866.65
2019-03-22T01:11:54.801Z,101872.77
2019-03-22T01:14:25.944Z,101872.84
2019-03-22T01:16:56.476Z,101866.03
2019-03-22T01:19:27.098Z,101868.07
2019-03-22T01:21:57.828Z,101861.90
2019-03-22T01:24:30.042Z,101863.20
2019-03-22T01:27:00.521Z,101866.09
2019-03-22T01:29:30.897Z,101865.52
2019-03-22T01:32:02.395Z,101857.45
2019-03-22T01:34:33.536Z,101855.06
2019-03-22T01:37:04.275Z,101850.73
2019-03-22T01:39:35.716Z,101852.02
2019-03-22T01:42:06.143Z,101856.00
2019-03-22T01:44:36.775Z,101847.12
2019-03-22T01:47:07.509Z,101847.40
2019-03-22T01:49:38.857Z,101848.45
2019-03-22T01:52:09.176Z,101842.03
2019-03-22T01:54:39.807Z,101841.45
2019-03-22T01:57:10.847Z,101841.31
2019-03-22T01:59:42.189Z,101838.56
2019-03-22T02:02:13.129Z,101841.45
2019-03-22T02:04:43.486Z,101834.11
2019-03-22T02:07:15.826Z,101840.58
2019-03-22T02:09:47.066Z,101838.59
2019-03-22T02:12:18.212Z,101844.59
2019-03-22T02:14:48.938Z,101839.06
2019-03-22T02:17:19.880Z,101839.72
2019-03-22T02:19:51.024Z,101839.69
2019-03-22T02:22:23.983Z,101842.50
2019-03-22T02:24:55.352Z,101842.69
2019-03-22T02:27:26.091Z,101838.38
2019-03-22T02:29:56.723Z,101838.75
2019-03-22T02:32:27.251Z,101837.30
2019-03-22T02:34:58.396Z,101833.33
2019-03-22T02:37:29.021Z,101833.97
2019-03-22T02:39:59.753Z,101833.72
2019-03-22T02:42:30.384Z,101834.02
2019-03-22T02:45:01.118Z,101832.85
2019-03-22T02:47:31.634Z,101832.09
2019-03-22T02:50:17.834Z,101838.02
2019-03-22T02:52:39.251Z,101833.47
2019-03-22T02:55:10.497Z,101832.45
2019-03-22T02:57:41.743Z,101829.06
2019-03-22T03:00:17.108Z,101830.66
2019-03-22T03:02:47.477Z,101821.91
2019-03-22T03:05:18.354Z,101822.63
2019-03-22T03:07:49.219Z,101820.75
2019-03-22T03:10:22.772Z,101820.39
2019-03-22T03:12:53.402Z,101813.73
2019-03-22T03:15:25.878Z,101818.00
2019-03-22T03:17:57.331Z,101818.15
2019-03-22T03:20:28.470Z,101814.49
2019-03-22T03:22:59.212Z,101802.13
2019-03-22T03:25:31.161Z,101808.85
2019-03-22T03:28:01.486Z,101809.42
2019-03-22T03:30:32.221Z,101818.90
2019-03-22T03:33:04.900Z,101812.25
2019-03-22T03:35:35.529Z,101810.30
2019-03-22T03:38:06.156Z,101808.99
2019-03-22T03:40:37.090Z,101800.63
2019-03-22T03:43:07.831Z,101809.23
2019-03-22T03:45:39.380Z,101808.08
2019-03-22T03:48:10.730Z,101804.75
2019-03-22T03:50:41.551Z,101802.48
2019-03-22T03:53:12.852Z,101804.25
2019-03-22T03:55:46.894Z,101801.06
2019-03-22T03:58:17.657Z,101792.81
2019-03-22T04:00:48.381Z,101804.53
2019-03-22T04:03:21.895Z,101801.12
2019-03-22T04:05:52.631Z,101801.95
2019-03-22T04:08:25.587Z,101796.71
2019-03-22T04:10:56.434Z,101798.48
2019-03-22T04:13:26.968Z,101795.34
2019-03-22T04:15:58.854Z,101796.09
2019-03-22T04:18:31.117Z,101797.74
2019-03-22T04:21:02.339Z,101799.42
2019-03-22T04:23:32.888Z,101796.74
2019-03-22T04:26:03.506Z,101796.31
2019-03-22T04:28:35.148Z,101792.81
2019-03-22T04:31:05.445Z,101795.16
2019-03-22T04:33:35.949Z,101797.75
2019-03-22T04:36:06.859Z,101777.86
2019-03-22T04:38:39.100Z,101785.81
2019-03-22T04:41:09.828Z,101781.23
2019-03-22T04:43:40.665Z,101779.30
2019-03-22T04:46:11.813Z,101771.39
2019-03-22T04:48:42.811Z,101771.13
2019-03-22T04:51:13.577Z,101775.75
2019-03-22T04:53:45.266Z,101766.86
2019-03-22T04:56:17.911Z,101772.72
2019-03-22T04:58:49.190Z,101765.91
2019-03-22T05:01:20.394Z,101768.66
2019-03-22T05:03:51.146Z,101762.86
2019-03-22T05:06:21.973Z,101765.20
2019-03-22T05:08:53.362Z,101771.32
2019-03-22T05:11:23.642Z,101771.66
2019-03-22T05:13:54.373Z,101758.32
2019-03-22T05:16:25.830Z,101774.38
2019-03-22T05:18:56.346Z,101766.65
2019-03-22T05:21:27.989Z,101767.43
2019-03-22T05:23:59.830Z,101767.78
2019-03-22T05:26:30.181Z,101768.23
2019-03-22T05:29:01.427Z,101764.26
2019-03-22T05:31:35.338Z,101757.30
2019-03-22T05:34:07.284Z,101762.89
2019-03-22T05:36:38.760Z,101757.67
2019-03-22T05:39:09.781Z,101757.23
2019-03-22T05:41:40.518Z,101755.66
2019-03-22T05:44:12.334Z,101759.39
2019-03-22T05:46:42.655Z,101761.62
2019-03-22T05:49:13.438Z,101763.23
2019-03-22T05:51:44.176Z,101763.55
2019-03-22T05:54:15.101Z,101763.13
2019-03-22T05:56:46.534Z,101756.67
2019-03-22T05:59:17.589Z,101761.42
2019-03-22T06:01:48.018Z,101756.34
2019-03-22T06:04:19.770Z,101755.70
2019-03-22T06:06:50.401Z,101755.78
2019-03-22T06:09:21.239Z,101755.42
2019-03-22T06:11:53.438Z,101747.16
2019-03-22T06:14:24.133Z,101748.63
2019-03-22T06:16:55.381Z,101738.20
2019-03-22T06:19:26.239Z,101735.93
2019-03-22T06:21:57.765Z,101740.30
2019-03-22T06:24:28.085Z,101734.04
2019-03-22T06:26:58.922Z,101730.23
2019-03-22T06:29:30.682Z,101722.25
2019-03-22T06:32:01.108Z,101723.20
2019-03-22T06:34:31.734Z,101721.91
2019-03-22T06:37:03.018Z,101726.59
2019-03-22T06:39:33.817Z,101720.31
2019-03-22T06:42:04.444Z,101713.41
2019-03-22T06:44:38.252Z,101711.70
2019-03-22T06:47:11.079Z,101707.36
2019-03-22T06:49:41.253Z,101694.20
2019-03-22T06:52:11.940Z,101697.64
2019-03-22T06:54:43.437Z,101688.83
2019-03-22T06:57:14.090Z,101688.34
2019-03-22T06:59:45.910Z,101679.97
2019-03-22T07:02:16.658Z,101673.63
2019-03-22T07:04:48.206Z,101672.77
2019-03-22T07:07:19.045Z,101667.56
2019-03-22T07:09:50.185Z,101658.38
2019-03-22T07:12:20.952Z,101654.84
2019-03-22T07:14:52.451Z,101648.52
2019-03-22T07:17:23.306Z,101640.52
2019-03-22T07:19:57.192Z,101638.53
2019-03-22T07:22:27.941Z,101643.23
2019-03-22T07:24:59.304Z,101632.84
2019-03-22T07:27:32.701Z,101628.73
2019-03-22T07:30:17.626Z,101630.55
2019-03-22T07:32:37.735Z,101623.30
2019-03-22T07:35:08.673Z,101623.14
2019-03-22T07:37:39.384Z,101617.91
2019-03-22T07:40:11.771Z,101614.25
2019-03-22T07:42:42.096Z,101610.73
2019-03-22T07:45:13.966Z,101607.55
2019-03-22T07:47:44.354Z,101603.03
2019-03-22T07:50:15.122Z,101599.95
2019-03-22T07:52:46.885Z,101584.56
2019-03-22T07:55:21.080Z,101577.82
2019-03-22T07:57:51.310Z,101576.73
2019-03-22T08:00:30.636Z,101580.38
2019-03-22T08:02:54.624Z,101574.26
2019-03-22T08:05:25.350Z,101578.64
2019-03-22T08:07:56.269Z,101561.10
2019-03-22T08:10:27.240Z,101575.48
2019-03-22T08:12:57.854Z,101559.56
2019-03-22T08:15:33.034Z,101542.42
2019-03-22T08:18:04.218Z,101537.81
2019-03-22T08:20:35.069Z,101531.75
2019-03-22T08:23:08.887Z,101525.01
2019-03-22T08:25:43.473Z,101526.28
2019-03-22T08:28:13.439Z,101521.14
2019-03-22T08:30:44.202Z,101518.91
2019-03-22T08:33:15.373Z,101496.30
2019-03-22T08:35:46.055Z,101504.13
2019-03-22T08:38:17.655Z,101488.99
2019-03-22T08:40:48.523Z,101513.48
2019-03-22T08:43:19.111Z,101482.58
2019-03-22T08:45:50.785Z,101471.97
2019-03-22T08:48:21.328Z,101459.82
2019-03-22T08:50:52.060Z,101460.98
2019-03-22T08:53:22.906Z,101453.97
2019-03-22T08:55:53.542Z,101443.45
2019-03-22T08:58:23.956Z,101447.42
2019-03-22T09:00:57.790Z,101436.44
2019-03-22T09:03:28.071Z,101442.66
2019-03-22T09:06:00.231Z,101439.21
2019-03-22T09:08:30.762Z,101427.57
2019-03-22T09:11:01.647Z,101437.84
2019-03-22T09:13:32.344Z,101402.97
2019-03-22T09:16:03.059Z,101395.49
2019-03-22T09:18:35.951Z,101385.63
2019-03-22T09:21:06.673Z,101395.80
2019-03-22T09:23:38.421Z,101384.69
2019-03-22T09:26:10.649Z,101394.80
2019-03-22T09:28:43.077Z,101395.16
2019-03-22T09:31:15.501Z,101393.11
2019-03-22T09:33:46.178Z,101374.31
2019-03-22T09:36:16.814Z,101380.98
2019-03-22T09:38:47.505Z,101365.92
2019-03-22T09:41:19.074Z,101349.97
2019-03-22T09:43:50.042Z,101335.63
2019-03-22T09:46:21.621Z,101333.45
2019-03-22T09:48:52.619Z,101315.68
2019-03-22T09:51:23.272Z,101319.28
2019-03-22T09:53:54.010Z,101299.48
2019-03-22T09:56:24.636Z,101296.91
2019-03-22T09:58:56.372Z,101297.36
2019-03-22T10:01:27.656Z,101301.86
2019-03-22T10:03:58.372Z,101291.03
2019-03-22T10:06:30.545Z,101300.61
2019-03-22T10:09:04.062Z,101276.55
2019-03-22T10:11:33.261Z,101270.27
2019-03-22T10:14:04.426Z,101260.52
2019-03-22T10:16:36.135Z,101267.55
2019-03-22T10:19:06.554Z,101260.72
2019-03-22T10:21:37.380Z,101256.79
2019-03-22T10:24:08.029Z,101250.43
2019-03-22T10:26:39.754Z,101257.34
2019-03-22T10:29:10.284Z,101246.98
2019-03-22T10:31:41.163Z,101257.33
2019-03-22T10:34:12.256Z,101252.11
2019-03-22T10:36:43.034Z,101243.20
2019-03-22T10:39:13.863Z,101242.67
2019-03-22T10:41:44.581Z,101217.59
2019-03-22T10:44:15.281Z,101229.30
2019-03-22T10:46:47.032Z,101210.13
2019-03-22T10:49:17.303Z,101211.18
2019-03-22T10:51:56.906Z,101152.23
2019-03-22T10:54:21.134Z,101193.89
2019-03-22T10:56:51.519Z,101171.12
2019-03-22T10:59:23.170Z,101186.05
2019-03-22T11:02:03.377Z,101182.70
2019-03-22T11:04:27.128Z,101195.41
2019-03-22T11:06:57.323Z,101199.70
2019-03-22T11:09:28.039Z,101182.28
2019-03-22T11:11:59.947Z,101176.77
2019-03-22T11:14:30.124Z,101166.72
2019-03-22T11:17:01.479Z,101153.53
2019-03-22T11:19:32.421Z,101168.90
2019-03-22T11:22:03.558Z,101154.64
2019-03-22T11:24:35.496Z,101157.16
2019-03-22T11:27:05.902Z,101166.66
2019-03-22T11:29:36.678Z,101156.26
2019-03-22T11:32:12.555Z,101150.20
2019-03-22T11:34:40.188Z,101149.51
2019-03-22T11:37:11.732Z,101138.42
2019-03-22T11:39:42.052Z,101136.13
2019-03-22T11:42:20.683Z,101118.55
2019-03-22T11:44:51.460Z,101130.51
2019-03-22T11:47:22.243Z,101123.64
2019-03-22T11:49:52.970Z,101110.89
2019-03-22T11:52:24.701Z,101108.55
2019-03-22T11:54:55.457Z,101092.48
2019-03-22T11:57:26.053Z,101085.89
2019-03-22T11:59:57.164Z,101090.71
2019-03-22T12:02:28.989Z,101093.20
2019-03-22T12:05:01.757Z,101094.16
2019-03-22T12:07:33.218Z,101089.35
2019-03-22T12:10:06.964Z,101084.82
2019-03-22T12:12:37.242Z,101073.36
2019-03-22T12:15:13.199Z,101073.36
2019-03-22T12:17:43.527Z,101079.89
2019-03-22T12:20:16.918Z,101068.95
2019-03-22T12:22:47.353Z,101085.92
2019-03-22T12:25:22.887Z,101057.08
2019-03-22T12:27:53.523Z,101057.13
2019-03-22T12:30:25.885Z,101057.33
2019-03-22T12:32:56.512Z,101065.25
2019-03-22T12:35:27.905Z,101064.80
2019-03-22T12:38:00.132Z,101038.25
2019-03-22T12:40:31.578Z,101041.02
2019-03-22T12:43:03.953Z,101026.42
2019-03-22T12:45:34.684Z,101039.05
2019-03-22T12:48:05.926Z,101011.33
2019-03-22T12:50:36.868Z,101006.61
2019-03-22T12:53:08.423Z,101003.00
2019-03-22T12:55:39.066Z,100995.37
2019-03-22T12:58:10.496Z,100989.15
2019-03-22T13:00:42.769Z,100989.46
2019-03-22T13:03:14.520Z,100988.53
2019-03-22T13:05:45.033Z,100968.73
2019-03-22T13:08:15.794Z,100975.34
2019-03-22T13:10:47.351Z,100962.50
2019-03-22T13:13:17.978Z,100971.30
2019-03-22T13:15:49.516Z,100959.92
2019-03-22T13:18:19.743Z,100949.34
2019-03-22T13:20:51.496Z,100958.40
2019-03-22T13:23:22.125Z,100933.48
2019-03-22T13:25:52.769Z,100917.64
2019-03-22T13:28:24.198Z,100904.45
2019-03-22T13:30:54.933Z,100913.09
2019-03-22T13:33:25.669Z,100902.30
2019-03-22T13:35:56.602Z,100910.23
2019-03-22T13:38:28.052Z,100901.59
2019-03-22T13:40:58.482Z,100898.61
2019-03-22T13:43:29.110Z,100893.27
2019-03-22T13:45:59.780Z,100899.56
2019-03-22T13:48:30.606Z,100903.98
2019-03-22T13:51:01.237Z,100912.45
2019-03-22T13:53:31.834Z,100914.80
2019-03-22T13:56:02.567Z,100906.48
2019-03-22T13:58:33.812Z,100906.09
2019-03-22T14:01:05.159Z,100911.09
2019-03-22T14:03:35.805Z,100910.25
2019-03-22T14:06:06.520Z,100914.56
2019-03-22T14:08:38.275Z,100914.92
2019-03-22T14:11:10.541Z,100901.72
2019-03-22T14:13:43.326Z,100901.52
2019-03-22T14:16:14.069Z,100901.63
2019-03-22T14:18:45.008Z,100885.02
2019-03-22T14:21:16.494Z,100882.77
2019-03-22T14:23:47.391Z,100879.39
2019-03-22T14:26:19.273Z,100882.48
2019-03-22T14:28:50.084Z,100876.09
2019-03-22T14:31:20.839Z,100877.47
2019-03-22T14:33:51.859Z,100874.78
2019-03-22T14:36:24.424Z,100854.89
2019-03-22T14:38:55.156Z,100864.22
2019-03-22T14:41:25.988Z,100841.34
2019-03-22T14:43:57.543Z,100828.66
2019-03-22T14:46:28.997Z,100815.08
2019-03-22T14:49:00.854Z,100817.73
2019-03-22T14:51:31.584Z,100811.97
2019-03-22T14:54:03.449Z,100806.91
2019-03-22T14:56:34.115Z,100812.53
2019-03-22T14:59:07.473Z,100811.20
2019-03-22T15:01:40.556Z,100803.64
2019-03-22T15:04:11.493Z,100796.52
2019-03-22T15:06:42.327Z,100787.94
2019-03-22T15:09:13.468Z,100778.03
2019-03-22T15:11:44.771Z,100768.80
2019-03-22T15:14:23.192Z,100759.94
2019-03-22T15:17:10.651Z,100759.11
2019-03-22T15:19:47.147Z,100765.59
2019-03-22T15:22:31.687Z,100778.00
2019-03-22T15:25:07.321Z,100773.11
2019-03-22T15:27:51.847Z,100766.71
2019-03-22T15:30:30.803Z,100767.21
2019-03-22T15:33:19.280Z,100758.05
2019-03-22T15:36:07.981Z,100749.53
2019-03-22T15:38:46.335Z,100748.35
2019-03-22T15:41:17.462Z,100751.86
2019-03-22T15:43:48.092Z,100741.75
2019-03-22T15:46:18.781Z,100735.77
2019-03-22T15:48:49.962Z,100729.43
2019-03-22T15:51:20.709Z,100727.19
2019-03-22T15:53:52.142Z,100732.17
2019-03-22T15:56:24.925Z,100724.54
2019-03-22T15:58:55.246Z,100711.22
2019-03-22T16:01:25.765Z,100718.45
2019-03-22T16:03:56.299Z,100709.02
2019-03-22T16:06:27.134Z,100723.62
2019-03-22T16:08:58.913Z,100910.56
2019-03-22T16:11:29.219Z,100979.56
2019-03-22T16:13:59.724Z,100982.40
2019-03-22T16:16:31.868Z,100994.62
2019-03-22T16:19:02.437Z,100982.83
2019-03-22T16:21:33.173Z,100990.68
2019-03-22T16:24:03.891Z,101002.95
2019-03-22T16:26:34.532Z,100989.16
2019-03-22T16:29:05.272Z,100948.02
2019-03-22T16:31:35.891Z,100944.66
2019-03-22T16:34:06.426Z,100964.48
2019-03-22T16:36:38.785Z,100978.33
2019-03-22T16:39:10.165Z,100976.72
2019-03-22T16:41:40.770Z,100981.52
2019-03-22T16:44:11.399Z,100947.11
2019-03-22T16:46:42.037Z,100957.40
2019-03-22T16:49:13.012Z,100952.14
2019-03-22T16:51:43.497Z,100961.45
2019-03-22T16:54:14.755Z,100972.94
2019-03-22T16:56:46.088Z,100999.58
2019-03-22T16:59:16.198Z,100998.20
2019-03-22T17:01:46.944Z,100986.72
2019-03-22T17:04:17.466Z,100991.78
2019-03-22T17:06:49.324Z,100984.73
2019-03-22T17:09:19.546Z,100988.52
2019-03-22T17:11:50.075Z,100983.90
2019-03-22T17:14:21.871Z,100986.53
2019-03-22T17:16:52.253Z,100985.59
2019-03-22T17:19:22.892Z,100983.64
2019-03-22T17:21:53.409Z,100975.40
2019-03-22T17:24:24.463Z,100965.42
2019-03-22T17:26:54.980Z,100971.61
2019-03-22T17:29:26.411Z,100970.75
2019-03-22T17:31:57.156Z,100980.35
2019-03-22T17:34:27.792Z,100970.23
2019-03-22T17:36:58.281Z,100966.14
2019-03-22T17:39:29.769Z,100973.00
2019-03-22T17:42:00.912Z,100967.33
2019-03-22T17:44:31.147Z,100970.05
2019-03-22T17:47:01.772Z,100974.14
2019-03-22T17:49:32.284Z,100979.22
2019-03-22T17:52:05.458Z,100979.58
2019-03-22T17:54:36.008Z,100987.78
2019-03-22T17:57:06.534Z,100983.83
2019-03-22T17:59:37.163Z,100992.38
2019-03-22T18:02:07.696Z,100990.27
2019-03-22T18:04:38.228Z,100979.44
2019-03-22T18:07:08.684Z,100986.83
2019-03-22T18:09:39.173Z,100982.69
2019-03-22T18:12:09.699Z,100994.04
2019-03-22T18:14:41.046Z,100995.92
2019-03-22T18:17:11.675Z,101004.80
2019-03-22T18:19:41.822Z,100999.81
2019-03-22T18:22:13.450Z,101005.02
2019-03-22T18:24:43.997Z,101001.31
2019-03-22T18:27:14.535Z,101010.21
2019-03-22T18:29:44.921Z,101013.68
2019-03-22T18:32:17.097Z,101010.33
2019-03-22T18:34:48.048Z,101014.73
2019-03-22T18:37:18.493Z,101013.77
2019-03-22T18:39:49.811Z,101016.56
2019-03-22T18:42:20.245Z,101020.77
2019-03-22T18:44:50.669Z,101021.81
2019-03-22T18:47:21.167Z,101024.98
2019-03-22T18:49:55.190Z,101034.59
2019-03-22T18:52:25.516Z,101048.33
2019-03-22T18:54:56.149Z,101040.86
2019-03-22T18:57:27.183Z,101042.59
2019-03-22T18:59:57.830Z,101048.91
2019-03-22T19:02:28.547Z,101051.06
2019-03-22T19:04:59.689Z,101047.86
2019-03-22T19:07:30.316Z,101053.62
2019-03-22T19:10:00.846Z,101055.91
2019-03-22T19:12:31.887Z,101061.94
2019-03-22T19:15:04.873Z,101066.41
2019-03-22T19:17:35.042Z,101071.25
2019-03-22T19:20:10.687Z,101070.71
2019-03-22T19:22:41.580Z,101084.44
2019-03-22T19:25:14.555Z,101078.50
2019-03-22T19:27:45.086Z,101074.16
2019-03-22T19:30:18.818Z,101076.36
2019-03-22T19:32:49.320Z,101072.16
2019-03-22T19:35:20.663Z,101076.88
2019-03-22T19:37:52.879Z,101080.29
2019-03-22T19:40:23.047Z,101072.59
2019-03-22T19:42:54.088Z,101068.13
2019-03-22T19:45:25.437Z,101075.28
2019-03-22T19:47:55.965Z,101073.85
2019-03-22T19:50:26.455Z,101080.02
2019-03-22T19:52:59.475Z,101075.19
2019-03-22T19:55:30.009Z,101068.33
2019-03-22T19:58:00.634Z,101069.80
2019-03-22T20:00:31.162Z,101070.63
2019-03-22T20:03:04.568Z,101071.27
2019-03-22T20:05:35.087Z,101067.86
2019-03-22T20:08:05.617Z,101075.38
2019-03-22T20:10:36.040Z,101067.89
2019-03-22T20:13:06.470Z,101075.89
2019-03-22T20:15:37.090Z,101075.03
2019-03-22T20:18:09.592Z,101077.94
2019-03-22T20:20:39.791Z,101069.77
2019-03-22T20:23:11.134Z,101073.45
2019-03-22T20:25:44.482Z,101065.89
2019-03-22T20:28:16.284Z,101072.05
2019-03-22T20:30:46.505Z,101068.71
2019-03-22T20:33:16.994Z,101071.45
2019-03-22T20:35:49.713Z,101061.91
2019-03-22T20:38:20.035Z,101061.55
2019-03-22T20:40:51.077Z,101060.57
2019-03-22T20:43:21.708Z,101061.44
2019-03-22T20:45:52.232Z,101062.30
2019-03-22T20:48:22.860Z,101065.70
2019-03-22T20:50:53.388Z,101067.43
2019-03-22T20:53:23.911Z,101065.20
2019-03-22T20:55:56.397Z,101067.97
2019-03-22T20:58:28.146Z,101069.70
2019-03-22T21:00:58.477Z,101061.53
2019-03-22T21:03:28.997Z,101064.12
2019-03-22T21:05:59.524Z,101062.55
2019-03-22T21:08:30.870Z,101062.78
2019-03-22T21:11:01.294Z,101058.80
2019-03-22T21:13:32.133Z,101063.58
2019-03-22T21:16:02.555Z,101057.67
2019-03-22T21:18:33.865Z,101062.45
2019-03-22T21:21:04.153Z,101064.09
2019-03-22T21:23:36.547Z,101057.64
2019-03-22T21:26:07.040Z,101058.51
2019-03-22T21:31:13.248Z,101038.28
2019-03-22T21:33:43.524Z,101049.03
2019-03-22T21:36:14.047Z,101046.09
2019-03-22T21:38:44.678Z,101045.94
2019-03-22T21:41:15.312Z,101044.66
2019-03-22T21:43:45.943Z,101045.39
2019-03-22T21:46:17.041Z,101042.33
2019-03-22T21:48:48.322Z,101047.40
2019-03-22T21:51:21.311Z,101043.95
2019-03-22T21:53:51.738Z,101045.84
2019-03-22T21:56:22.265Z,101044.44
2019-03-22T21:58:54.223Z,101043.22
2019-03-22T22:01:24.547Z,101046.02
2019-03-22T22:03:55.074Z,101045.34
2019-03-22T22:06:25.705Z,101044.33
2019-03-22T22:08:57.283Z,101044.08
2019-03-22T22:11:28.091Z,101041.84
2019-03-22T22:13:58.616Z,101037.09
2019-03-22T22:16:29.144Z,101034.67
2019-03-22T22:18:59.674Z,101037.38
2019-03-22T22:21:30.308Z,101025.20
2019-03-22T22:24:01.649Z,101023.47
2019-03-22T22:26:31.873Z,101018.42
2019-03-22T22:29:02.808Z,101021.35
2019-03-22T22:31:33.440Z,101015.48
2019-03-22T22:34:03.967Z,101015.52
2019-03-22T22:36:34.500Z,101014.70
2019-03-22T22:39:07.990Z,101017.48
2019-03-22T22:41:38.202Z,101013.53
2019-03-22T22:44:08.879Z,101011.77
2019-03-22T22:46:40.809Z,101006.09
2019-03-22T22:49:11.232Z,101012.52
2019-03-22T22:51:42.099Z,101012.16
2019-03-22T22:54:13.210Z,101011.38
2019-03-22T22:56:43.840Z,101010.91
2019-03-22T22:59:15.297Z,101014.72
2019-03-22T23:01:46.079Z,101013.89
2019-03-22T23:04:17.976Z,101003.91
2019-03-22T23:06:48.609Z,101001.41
2019-03-22T23:09:20.184Z,100996.59
2019-03-22T23:11:50.793Z,100995.49
2019-03-22T23:14:21.657Z,100997.02
2019-03-22T23:16:52.762Z,100997.65
2019-03-22T23:19:23.499Z,100988.88
2019-03-22T23:21:54.125Z,100991.77
2019-03-22T23:24:25.165Z,100993.45
2019-03-22T23:26:56.149Z,101000.00
2019-03-22T23:29:26.739Z,100999.02
2019-03-22T23:31:57.266Z,100988.52
2019-03-22T23:34:27.991Z,100990.45
2019-03-22T23:36:58.483Z,100996.04
2019-03-22T23:39:29.836Z,100987.19
2019-03-22T23:42:00.198Z,100985.73
2019-03-22T23:44:30.709Z,100986.59
2019-03-22T23:47:01.098Z,100982.33
2019-03-22T23:49:31.683Z,100979.75
2019-03-22T23:52:02.203Z,100976.81
2019-03-22T23:54:32.732Z,100969.45
2019-03-22T23:57:04.996Z,100966.00
2019-03-22T23:59:35.329Z,100966.64
